sensor_id;sensor_type;location;lat;lon;timestamp;P1;durP1;ratioP1;P2;durP2;ratioP2
26516;SDS011;14190;51.342;6.338;2023-06-24T00:00:04;5.78;;;2.87;;
26516;SDS011;14190;51.342;6.338;2023-06-24T00:02:34;6.15;;;3.60;;
26516;SDS011;14190;51.342;6.338;2023-06-24T00:05:03;5.12;;;3.33;;
26516;SDS011;14190;51.342;6.338;2023-06-24T00:07:31;6.03;;;3.05;;
26516;SDS011;14190;51.342;6.338;2023-06-24T00:09:58;4.70;;;3.58;;
26516;SDS011;14190;51.342;6.338;2023-06-24T00:12:26;6.58;;;3.92;;
26516;SDS011;14190;51.342;6.338;2023-06-24T00:14:53;4.58;;;3.00;;
26516;SDS011;14190;51.342;6.338;2023-06-24T00:17:21;5.45;;;3.40;;
26516;SDS011;14190;51.342;6.338;2023-06-24T00:19:48;4.97;;;3.35;;
26516;SDS011;14190;51.342;6.338;2023-06-24T00:22:15;6.08;;;3.45;;
26516;SDS011;14190;51.342;6.338;2023-06-24T00:24:43;4.95;;;2.70;;
26516;SDS011;14190;51.342;6.338;2023-06-24T00:27:11;5.28;;;3.47;;
26516;SDS011;14190;51.342;6.338;2023-06-24T00:29:38;4.80;;;3.58;;
26516;SDS011;14190;51.342;6.338;2023-06-24T00:32:06;5.08;;;3.60;;
26516;SDS011;14190;51.342;6.338;2023-06-24T00:34:34;7.15;;;3.67;;
26516;SDS011;14190;51.342;6.338;2023-06-24T00:37:02;5.30;;;2.65;;
26516;SDS011;14190;51.342;6.338;2023-06-24T00:39:29;4.53;;;2.60;;
26516;SDS011;14190;51.342;6.338;2023-06-24T00:41:56;8.23;;;3.12;;
26516;SDS011;14190;51.342;6.338;2023-06-24T00:44:24;4.30;;;2.87;;
26516;SDS011;14190;51.342;6.338;2023-06-24T00:46:51;6.10;;;3.25;;
26516;SDS011;14190;51.342;6.338;2023-06-24T00:49:19;6.85;;;3.35;;
26516;SDS011;14190;51.342;6.338;2023-06-24T00:51:46;6.40;;;3.50;;
26516;SDS011;14190;51.342;6.338;2023-06-24T00:56:43;4.95;;;2.42;;
26516;SDS011;14190;51.342;6.338;2023-06-24T00:59:13;4.60;;;2.80;;
26516;SDS011;14190;51.342;6.338;2023-06-24T01:01:40;5.75;;;3.02;;
26516;SDS011;14190;51.342;6.338;2023-06-24T01:04:08;6.30;;;3.83;;
26516;SDS011;14190;51.342;6.338;2023-06-24T01:06:36;5.45;;;2.98;;
26516;SDS011;14190;51.342;6.338;2023-06-24T01:09:05;5.62;;;2.80;;
26516;SDS011;14190;51.342;6.338;2023-06-24T01:11:34;9.23;;;3.45;;
26516;SDS011;14190;51.342;6.338;2023-06-24T01:14:01;11.03;;;3.85;;
26516;SDS011;14190;51.342;6.338;2023-06-24T01:16:49;3.98;;;2.90;;
26516;SDS011;14190;51.342;6.338;2023-06-24T01:21:42;8.50;;;3.33;;
26516;SDS011;14190;51.342;6.338;2023-06-24T01:24:23;4.50;;;3.70;;
26516;SDS011;14190;51.342;6.338;2023-06-24T01:31:57;7.03;;;4.42;;
26516;SDS011;14190;51.342;6.338;2023-06-24T01:35:11;5.58;;;3.60;;
26516;SDS011;14190;51.342;6.338;2023-06-24T01:39:28;8.68;;;3.35;;
26516;SDS011;14190;51.342;6.338;2023-06-24T01:42:00;8.15;;;4.65;;
26516;SDS011;14190;51.342;6.338;2023-06-24T01:44:28;10.25;;;4.60;;
26516;SDS011;14190;51.342;6.338;2023-06-24T01:46:57;5.75;;;3.65;;
26516;SDS011;14190;51.342;6.338;2023-06-24T01:49:26;6.72;;;4.05;;
26516;SDS011;14190;51.342;6.338;2023-06-24T01:51:54;6.10;;;4.08;;
26516;SDS011;14190;51.342;6.338;2023-06-24T01:54:22;6.37;;;3.90;;
26516;SDS011;14190;51.342;6.338;2023-06-24T01:56:51;10.28;;;5.28;;
26516;SDS011;14190;51.342;6.338;2023-06-24T01:59:19;7.33;;;4.05;;
26516;SDS011;14190;51.342;6.338;2023-06-24T02:01:48;8.60;;;4.65;;
26516;SDS011;14190;51.342;6.338;2023-06-24T02:04:18;9.73;;;4.47;;
26516;SDS011;14190;51.342;6.338;2023-06-24T02:06:46;5.95;;;4.10;;
26516;SDS011;14190;51.342;6.338;2023-06-24T02:09:13;7.72;;;3.98;;
26516;SDS011;14190;51.342;6.338;2023-06-24T02:11:42;6.80;;;4.15;;
26516;SDS011;14190;51.342;6.338;2023-06-24T02:14:10;9.15;;;5.53;;
26516;SDS011;14190;51.342;6.338;2023-06-24T02:16:38;10.50;;;4.80;;
26516;SDS011;14190;51.342;6.338;2023-06-24T02:19:09;7.33;;;4.78;;
26516;SDS011;14190;51.342;6.338;2023-06-24T02:21:39;10.35;;;4.90;;
26516;SDS011;14190;51.342;6.338;2023-06-24T02:24:06;9.90;;;4.67;;
26516;SDS011;14190;51.342;6.338;2023-06-24T02:26:34;8.80;;;5.28;;
26516;SDS011;14190;51.342;6.338;2023-06-24T02:29:04;11.57;;;4.72;;
26516;SDS011;14190;51.342;6.338;2023-06-24T02:31:32;10.13;;;5.83;;
26516;SDS011;14190;51.342;6.338;2023-06-24T02:33:59;8.35;;;5.45;;
26516;SDS011;14190;51.342;6.338;2023-06-24T02:36:27;6.75;;;4.53;;
26516;SDS011;14190;51.342;6.338;2023-06-24T02:38:55;10.03;;;5.05;;
26516;SDS011;14190;51.342;6.338;2023-06-24T02:41:22;9.28;;;4.08;;
26516;SDS011;14190;51.342;6.338;2023-06-24T02:43:50;13.43;;;4.78;;
26516;SDS011;14190;51.342;6.338;2023-06-24T02:46:18;12.20;;;5.10;;
26516;SDS011;14190;51.342;6.338;2023-06-24T02:48:46;10.10;;;4.12;;
26516;SDS011;14190;51.342;6.338;2023-06-24T02:51:15;9.05;;;4.90;;
26516;SDS011;14190;51.342;6.338;2023-06-24T02:53:43;7.67;;;4.10;;
26516;SDS011;14190;51.342;6.338;2023-06-24T02:56:12;15.53;;;4.72;;
26516;SDS011;14190;51.342;6.338;2023-06-24T02:58:40;7.22;;;4.40;;
26516;SDS011;14190;51.342;6.338;2023-06-24T03:01:09;12.45;;;4.62;;
26516;SDS011;14190;51.342;6.338;2023-06-24T03:03:40;7.55;;;4.47;;
26516;SDS011;14190;51.342;6.338;2023-06-24T03:06:10;8.03;;;4.30;;
26516;SDS011;14190;51.342;6.338;2023-06-24T03:08:39;7.22;;;4.17;;
26516;SDS011;14190;51.342;6.338;2023-06-24T03:11:08;7.37;;;4.23;;
26516;SDS011;14190;51.342;6.338;2023-06-24T03:13:36;9.68;;;5.83;;
26516;SDS011;14190;51.342;6.338;2023-06-24T03:16:23;9.73;;;5.25;;
26516;SDS011;14190;51.342;6.338;2023-06-24T03:18:52;9.83;;;5.12;;
26516;SDS011;14190;51.342;6.338;2023-06-24T03:21:19;9.38;;;4.80;;
26516;SDS011;14190;51.342;6.338;2023-06-24T03:23:47;11.15;;;4.53;;
26516;SDS011;14190;51.342;6.338;2023-06-24T03:26:15;7.40;;;4.62;;
26516;SDS011;14190;51.342;6.338;2023-06-24T03:28:43;8.53;;;5.10;;
26516;SDS011;14190;51.342;6.338;2023-06-24T03:31:12;13.20;;;6.45;;
26516;SDS011;14190;51.342;6.338;2023-06-24T03:33:41;9.55;;;5.83;;
26516;SDS011;14190;51.342;6.338;2023-06-24T03:36:11;9.70;;;5.93;;
26516;SDS011;14190;51.342;6.338;2023-06-24T03:38:39;12.93;;;5.85;;
26516;SDS011;14190;51.342;6.338;2023-06-24T03:41:07;17.67;;;6.03;;
26516;SDS011;14190;51.342;6.338;2023-06-24T03:43:34;15.65;;;5.67;;
26516;SDS011;14190;51.342;6.338;2023-06-24T03:46:02;15.28;;;6.97;;
26516;SDS011;14190;51.342;6.338;2023-06-24T03:48:29;13.83;;;6.80;;
26516;SDS011;14190;51.342;6.338;2023-06-24T03:50:57;12.10;;;6.50;;
26516;SDS011;14190;51.342;6.338;2023-06-24T03:53:26;12.07;;;6.72;;
26516;SDS011;14190;51.342;6.338;2023-06-24T03:55:53;17.65;;;6.75;;
26516;SDS011;14190;51.342;6.338;2023-06-24T03:58:20;11.70;;;6.10;;
26516;SDS011;14190;51.342;6.338;2023-06-24T04:00:48;14.60;;;6.90;;
26516;SDS011;14190;51.342;6.338;2023-06-24T04:03:16;16.40;;;7.35;;
26516;SDS011;14190;51.342;6.338;2023-06-24T04:05:46;12.98;;;6.67;;
26516;SDS011;14190;51.342;6.338;2023-06-24T04:08:15;14.65;;;7.55;;
26516;SDS011;14190;51.342;6.338;2023-06-24T04:10:43;14.33;;;6.80;;
26516;SDS011;14190;51.342;6.338;2023-06-24T04:13:11;12.60;;;6.92;;
26516;SDS011;14190;51.342;6.338;2023-06-24T04:15:38;11.97;;;6.47;;
26516;SDS011;14190;51.342;6.338;2023-06-24T04:18:06;12.33;;;6.70;;
26516;SDS011;14190;51.342;6.338;2023-06-24T04:20:33;11.97;;;6.62;;
26516;SDS011;14190;51.342;6.338;2023-06-24T04:23:01;13.15;;;6.70;;
26516;SDS011;14190;51.342;6.338;2023-06-24T04:25:28;11.12;;;6.75;;
26516;SDS011;14190;51.342;6.338;2023-06-24T04:27:57;16.57;;;7.60;;
26516;SDS011;14190;51.342;6.338;2023-06-24T04:30:24;10.15;;;6.25;;
26516;SDS011;14190;51.342;6.338;2023-06-24T04:32:51;12.33;;;6.40;;
26516;SDS011;14190;51.342;6.338;2023-06-24T04:35:19;11.65;;;6.90;;
26516;SDS011;14190;51.342;6.338;2023-06-24T04:37:46;14.75;;;8.50;;
26516;SDS011;14190;51.342;6.338;2023-06-24T04:40:21;10.90;;;6.65;;
26516;SDS011;14190;51.342;6.338;2023-06-24T04:42:45;10.57;;;7.23;;
26516;SDS011;14190;51.342;6.338;2023-06-24T04:45:13;14.23;;;7.20;;
26516;SDS011;14190;51.342;6.338;2023-06-24T04:47:40;12.35;;;6.97;;
26516;SDS011;14190;51.342;6.338;2023-06-24T04:50:07;13.60;;;7.70;;
26516;SDS011;14190;51.342;6.338;2023-06-24T04:52:39;15.28;;;8.43;;
26516;SDS011;14190;51.342;6.338;2023-06-24T04:55:07;12.55;;;7.40;;
26516;SDS011;14190;51.342;6.338;2023-06-24T04:57:34;12.58;;;7.95;;
26516;SDS011;14190;51.342;6.338;2023-06-24T05:00:02;13.20;;;8.15;;
26516;SDS011;14190;51.342;6.338;2023-06-24T05:02:31;15.38;;;7.92;;
26516;SDS011;14190;51.342;6.338;2023-06-24T05:04:58;11.05;;;7.53;;
26516;SDS011;14190;51.342;6.338;2023-06-24T05:07:32;14.33;;;9.43;;
26516;SDS011;14190;51.342;6.338;2023-06-24T05:12:22;14.75;;;8.48;;
26516;SDS011;14190;51.342;6.338;2023-06-24T05:14:50;16.10;;;9.75;;
26516;SDS011;14190;51.342;6.338;2023-06-24T05:17:19;16.97;;;9.10;;
26516;SDS011;14190;51.342;6.338;2023-06-24T05:19:46;13.60;;;8.88;;
26516;SDS011;14190;51.342;6.338;2023-06-24T05:22:14;19.45;;;10.03;;
26516;SDS011;14190;51.342;6.338;2023-06-24T05:24:41;16.57;;;9.25;;
26516;SDS011;14190;51.342;6.338;2023-06-24T05:27:08;17.90;;;9.80;;
26516;SDS011;14190;51.342;6.338;2023-06-24T05:29:36;14.85;;;8.55;;
26516;SDS011;14190;51.342;6.338;2023-06-24T05:32:04;11.80;;;7.65;;
26516;SDS011;14190;51.342;6.338;2023-06-24T05:34:32;17.23;;;8.00;;
26516;SDS011;14190;51.342;6.338;2023-06-24T05:37:01;10.28;;;6.70;;
26516;SDS011;14190;51.342;6.338;2023-06-24T05:39:28;11.03;;;7.35;;
26516;SDS011;14190;51.342;6.338;2023-06-24T05:41:56;10.95;;;6.30;;
26516;SDS011;14190;51.342;6.338;2023-06-24T05:44:23;16.95;;;7.12;;
26516;SDS011;14190;51.342;6.338;2023-06-24T05:46:50;12.75;;;6.95;;
26516;SDS011;14190;51.342;6.338;2023-06-24T05:49:18;12.10;;;6.12;;
26516;SDS011;14190;51.342;6.338;2023-06-24T05:51:45;9.68;;;6.00;;
26516;SDS011;14190;51.342;6.338;2023-06-24T05:54:13;12.85;;;6.55;;
26516;SDS011;14190;51.342;6.338;2023-06-24T05:56:40;13.03;;;6.12;;
26516;SDS011;14190;51.342;6.338;2023-06-24T05:59:07;10.85;;;6.17;;
26516;SDS011;14190;51.342;6.338;2023-06-24T06:01:35;10.25;;;6.08;;
26516;SDS011;14190;51.342;6.338;2023-06-24T06:04:02;8.80;;;5.60;;
26516;SDS011;14190;51.342;6.338;2023-06-24T06:06:29;9.68;;;6.80;;
26516;SDS011;14190;51.342;6.338;2023-06-24T06:08:57;10.03;;;6.08;;
26516;SDS011;14190;51.342;6.338;2023-06-24T06:11:24;9.93;;;6.25;;
26516;SDS011;14190;51.342;6.338;2023-06-24T06:13:51;7.67;;;5.12;;
26516;SDS011;14190;51.342;6.338;2023-06-24T06:16:19;7.72;;;5.05;;
26516;SDS011;14190;51.342;6.338;2023-06-24T06:18:46;7.58;;;4.85;;
26516;SDS011;14190;51.342;6.338;2023-06-24T06:21:14;5.47;;;3.52;;
26516;SDS011;14190;51.342;6.338;2023-06-24T06:23:41;7.72;;;4.15;;
26516;SDS011;14190;51.342;6.338;2023-06-24T06:26:09;9.53;;;4.28;;
26516;SDS011;14190;51.342;6.338;2023-06-24T06:28:36;8.60;;;4.85;;
26516;SDS011;14190;51.342;6.338;2023-06-24T06:31:03;8.63;;;4.30;;
26516;SDS011;14190;51.342;6.338;2023-06-24T06:33:31;9.18;;;4.83;;
26516;SDS011;14190;51.342;6.338;2023-06-24T06:35:58;6.28;;;3.70;;
26516;SDS011;14190;51.342;6.338;2023-06-24T06:38:26;9.88;;;3.80;;
26516;SDS011;14190;51.342;6.338;2023-06-24T06:40:53;6.37;;;4.12;;
26516;SDS011;14190;51.342;6.338;2023-06-24T06:43:21;5.78;;;3.92;;
26516;SDS011;14190;51.342;6.338;2023-06-24T06:45:48;6.75;;;3.98;;
26516;SDS011;14190;51.342;6.338;2023-06-24T06:48:15;7.37;;;4.10;;
26516;SDS011;14190;51.342;6.338;2023-06-24T06:50:44;8.33;;;4.92;;
26516;SDS011;14190;51.342;6.338;2023-06-24T06:53:11;9.55;;;4.05;;
26516;SDS011;14190;51.342;6.338;2023-06-24T06:55:38;8.33;;;4.20;;
26516;SDS011;14190;51.342;6.338;2023-06-24T06:58:06;5.37;;;3.75;;
26516;SDS011;14190;51.342;6.338;2023-06-24T07:00:33;9.50;;;4.17;;
26516;SDS011;14190;51.342;6.338;2023-06-24T07:03:00;6.75;;;4.28;;
26516;SDS011;14190;51.342;6.338;2023-06-24T07:05:28;11.60;;;5.60;;
26516;SDS011;14190;51.342;6.338;2023-06-24T07:07:56;8.25;;;4.70;;
26516;SDS011;14190;51.342;6.338;2023-06-24T07:10:23;7.75;;;3.90;;
26516;SDS011;14190;51.342;6.338;2023-06-24T07:12:50;8.65;;;4.72;;
26516;SDS011;14190;51.342;6.338;2023-06-24T07:15:19;9.35;;;4.35;;
26516;SDS011;14190;51.342;6.338;2023-06-24T07:17:47;7.62;;;4.37;;
26516;SDS011;14190;51.342;6.338;2023-06-24T07:20:14;8.58;;;5.35;;
26516;SDS011;14190;51.342;6.338;2023-06-24T07:22:42;7.47;;;4.53;;
26516;SDS011;14190;51.342;6.338;2023-06-24T07:25:09;6.85;;;4.30;;
26516;SDS011;14190;51.342;6.338;2023-06-24T07:27:36;6.12;;;4.20;;
26516;SDS011;14190;51.342;6.338;2023-06-24T07:30:04;9.13;;;4.85;;
26516;SDS011;14190;51.342;6.338;2023-06-24T07:32:32;11.43;;;4.25;;
26516;SDS011;14190;51.342;6.338;2023-06-24T07:34:59;6.60;;;4.37;;
26516;SDS011;14190;51.342;6.338;2023-06-24T07:37:26;11.97;;;5.40;;
26516;SDS011;14190;51.342;6.338;2023-06-24T07:39:54;6.33;;;4.37;;
26516;SDS011;14190;51.342;6.338;2023-06-24T07:42:21;12.55;;;4.05;;
26516;SDS011;14190;51.342;6.338;2023-06-24T07:44:48;7.80;;;4.20;;
26516;SDS011;14190;51.342;6.338;2023-06-24T07:47:16;6.53;;;3.83;;
26516;SDS011;14190;51.342;6.338;2023-06-24T07:52:12;6.05;;;4.08;;
26516;SDS011;14190;51.342;6.338;2023-06-24T07:54:40;8.13;;;4.67;;
26516;SDS011;14190;51.342;6.338;2023-06-24T07:57:08;9.35;;;4.45;;
26516;SDS011;14190;51.342;6.338;2023-06-24T07:59:35;10.60;;;4.72;;
26516;SDS011;14190;51.342;6.338;2023-06-24T08:02:02;9.18;;;4.72;;
26516;SDS011;14190;51.342;6.338;2023-06-24T08:04:30;8.38;;;4.45;;
26516;SDS011;14190;51.342;6.338;2023-06-24T08:06:57;8.93;;;4.60;;
26516;SDS011;14190;51.342;6.338;2023-06-24T08:09:24;8.60;;;4.03;;
26516;SDS011;14190;51.342;6.338;2023-06-24T08:11:52;10.23;;;4.97;;
26516;SDS011;14190;51.342;6.338;2023-06-24T08:14:19;8.70;;;4.40;;
26516;SDS011;14190;51.342;6.338;2023-06-24T08:16:46;6.83;;;4.50;;
26516;SDS011;14190;51.342;6.338;2023-06-24T08:19:14;11.63;;;4.97;;
26516;SDS011;14190;51.342;6.338;2023-06-24T08:21:41;9.30;;;4.75;;
26516;SDS011;14190;51.342;6.338;2023-06-24T08:24:09;12.03;;;4.87;;
26516;SDS011;14190;51.342;6.338;2023-06-24T08:29:41;9.03;;;5.33;;
26516;SDS011;14190;51.342;6.338;2023-06-24T08:32:27;6.47;;;4.67;;
26516;SDS011;14190;51.342;6.338;2023-06-24T08:34:54;8.83;;;5.75;;
26516;SDS011;14190;51.342;6.338;2023-06-24T08:37:21;8.83;;;5.42;;
26516;SDS011;14190;51.342;6.338;2023-06-24T08:39:49;8.68;;;4.70;;
26516;SDS011;14190;51.342;6.338;2023-06-24T08:42:16;11.05;;;6.03;;
26516;SDS011;14190;51.342;6.338;2023-06-24T08:44:44;9.08;;;5.10;;
26516;SDS011;14190;51.342;6.338;2023-06-24T08:47:11;11.22;;;5.40;;
26516;SDS011;14190;51.342;6.338;2023-06-24T08:49:45;9.85;;;5.95;;
26516;SDS011;14190;51.342;6.338;2023-06-24T08:52:11;7.03;;;4.05;;
26516;SDS011;14190;51.342;6.338;2023-06-24T08:54:38;10.13;;;4.83;;
26516;SDS011;14190;51.342;6.338;2023-06-24T08:57:07;7.65;;;4.80;;
26516;SDS011;14190;51.342;6.338;2023-06-24T08:59:36;8.40;;;4.60;;
26516;SDS011;14190;51.342;6.338;2023-06-24T09:02:05;7.40;;;4.25;;
26516;SDS011;14190;51.342;6.338;2023-06-24T09:04:32;9.98;;;4.20;;
26516;SDS011;14190;51.342;6.338;2023-06-24T09:06:59;8.68;;;3.75;;
26516;SDS011;14190;51.342;6.338;2023-06-24T09:09:27;6.62;;;3.35;;
26516;SDS011;14190;51.342;6.338;2023-06-24T09:11:56;7.55;;;3.67;;
26516;SDS011;14190;51.342;6.338;2023-06-24T09:14:24;9.53;;;3.80;;
26516;SDS011;14190;51.342;6.338;2023-06-24T09:16:55;6.67;;;3.65;;
26516;SDS011;14190;51.342;6.338;2023-06-24T09:19:23;7.70;;;3.60;;
26516;SDS011;14190;51.342;6.338;2023-06-24T09:21:50;7.00;;;3.40;;
26516;SDS011;14190;51.342;6.338;2023-06-24T09:24:21;7.25;;;4.70;;
26516;SDS011;14190;51.342;6.338;2023-06-24T09:26:48;4.22;;;2.40;;
26516;SDS011;14190;51.342;6.338;2023-06-24T09:29:16;3.90;;;2.77;;
26516;SDS011;14190;51.342;6.338;2023-06-24T09:31:51;4.28;;;2.72;;
26516;SDS011;14190;51.342;6.338;2023-06-24T09:34:15;4.22;;;2.67;;
26516;SDS011;14190;51.342;6.338;2023-06-24T09:36:43;6.47;;;2.87;;
26516;SDS011;14190;51.342;6.338;2023-06-24T09:39:11;3.10;;;2.45;;
26516;SDS011;14190;51.342;6.338;2023-06-24T09:41:41;3.37;;;2.33;;
26516;SDS011;14190;51.342;6.338;2023-06-24T09:44:12;4.97;;;2.60;;
26516;SDS011;14190;51.342;6.338;2023-06-24T09:46:39;4.70;;;2.58;;
26516;SDS011;14190;51.342;6.338;2023-06-24T09:49:08;3.27;;;2.00;;
26516;SDS011;14190;51.342;6.338;2023-06-24T09:51:42;3.12;;;2.27;;
26516;SDS011;14190;51.342;6.338;2023-06-24T09:54:10;4.33;;;2.50;;
26516;SDS011;14190;51.342;6.338;2023-06-24T09:56:34;5.33;;;1.93;;
26516;SDS011;14190;51.342;6.338;2023-06-24T10:01:30;4.47;;;2.52;;
26516;SDS011;14190;51.342;6.338;2023-06-24T10:03:59;2.58;;;1.98;;
26516;SDS011;14190;51.342;6.338;2023-06-24T10:06:28;2.85;;;2.10;;
26516;SDS011;14190;51.342;6.338;2023-06-24T10:08:56;3.17;;;2.12;;
26516;SDS011;14190;51.342;6.338;2023-06-24T10:11:23;4.17;;;2.50;;
26516;SDS011;14190;51.342;6.338;2023-06-24T10:13:51;4.45;;;2.47;;
26516;SDS011;14190;51.342;6.338;2023-06-24T10:16:18;13.90;;;2.37;;
26516;SDS011;14190;51.342;6.338;2023-06-24T10:18:46;4.60;;;1.87;;
26516;SDS011;14190;51.342;6.338;2023-06-24T10:21:15;3.40;;;1.87;;
26516;SDS011;14190;51.342;6.338;2023-06-24T10:23:50;2.95;;;1.77;;
26516;SDS011;14190;51.342;6.338;2023-06-24T10:26:21;4.50;;;1.87;;
26516;SDS011;14190;51.342;6.338;2023-06-24T10:29:23;3.75;;;2.08;;
26516;SDS011;14190;51.342;6.338;2023-06-24T10:31:12;3.77;;;2.72;;
26516;SDS011;14190;51.342;6.338;2023-06-24T10:33:39;2.00;;;1.80;;
26516;SDS011;14190;51.342;6.338;2023-06-24T10:36:22;1.82;;;1.40;;
26516;SDS011;14190;51.342;6.338;2023-06-24T10:38:37;3.10;;;1.37;;
26516;SDS011;14190;51.342;6.338;2023-06-24T10:41:15;3.30;;;2.00;;
26516;SDS011;14190;51.342;6.338;2023-06-24T10:43:34;1.75;;;1.62;;
26516;SDS011;14190;51.342;6.338;2023-06-24T10:46:06;2.98;;;1.80;;
26516;SDS011;14190;51.342;6.338;2023-06-24T10:48:31;3.45;;;1.98;;
26516;SDS011;14190;51.342;6.338;2023-06-24T10:50:59;3.08;;;1.75;;
26516;SDS011;14190;51.342;6.338;2023-06-24T10:53:26;2.58;;;1.57;;
26516;SDS011;14190;51.342;6.338;2023-06-24T10:55:56;1.57;;;1.42;;
26516;SDS011;14190;51.342;6.338;2023-06-24T10:58:22;2.10;;;1.40;;
26516;SDS011;14190;51.342;6.338;2023-06-24T11:00:50;2.42;;;1.70;;
26516;SDS011;14190;51.342;6.338;2023-06-24T11:03:17;3.60;;;1.72;;
26516;SDS011;14190;51.342;6.338;2023-06-24T11:05:45;1.75;;;1.35;;
26516;SDS011;14190;51.342;6.338;2023-06-24T11:08:13;1.67;;;1.32;;
26516;SDS011;14190;51.342;6.338;2023-06-24T11:10:49;1.42;;;1.10;;
26516;SDS011;14190;51.342;6.338;2023-06-24T11:13:13;1.25;;;1.10;;
26516;SDS011;14190;51.342;6.338;2023-06-24T11:15:41;1.40;;;1.05;;
26516;SDS011;14190;51.342;6.338;2023-06-24T11:18:11;1.70;;;1.32;;
26516;SDS011;14190;51.342;6.338;2023-06-24T11:20:39;2.50;;;1.52;;
26516;SDS011;14190;51.342;6.338;2023-06-24T11:23:07;2.20;;;1.22;;
26516;SDS011;14190;51.342;6.338;2023-06-24T11:25:39;1.42;;;1.20;;
26516;SDS011;14190;51.342;6.338;2023-06-24T11:28:17;1.55;;;1.30;;
26516;SDS011;14190;51.342;6.338;2023-06-24T11:30:42;4.08;;;1.17;;
26516;SDS011;14190;51.342;6.338;2023-06-24T11:33:09;1.57;;;1.10;;
26516;SDS011;14190;51.342;6.338;2023-06-24T11:35:36;6.08;;;1.05;;
26516;SDS011;14190;51.342;6.338;2023-06-24T11:38:04;1.15;;;0.90;;
26516;SDS011;14190;51.342;6.338;2023-06-24T11:40:31;1.52;;;0.98;;
26516;SDS011;14190;51.342;6.338;2023-06-24T11:43:00;1.42;;;1.15;;
26516;SDS011;14190;51.342;6.338;2023-06-24T11:45:28;1.05;;;0.95;;
26516;SDS011;14190;51.342;6.338;2023-06-24T11:48:01;1.55;;;1.17;;
26516;SDS011;14190;51.342;6.338;2023-06-24T11:50:30;1.70;;;1.12;;
26516;SDS011;14190;51.342;6.338;2023-06-24T11:52:54;1.37;;;1.25;;
26516;SDS011;14190;51.342;6.338;2023-06-24T11:55:22;0.90;;;0.80;;
26516;SDS011;14190;51.342;6.338;2023-06-24T11:57:57;1.40;;;1.05;;
26516;SDS011;14190;51.342;6.338;2023-06-24T12:00:28;1.47;;;1.17;;
26516;SDS011;14190;51.342;6.338;2023-06-24T12:02:57;2.52;;;1.30;;
26516;SDS011;14190;51.342;6.338;2023-06-24T12:05:26;2.15;;;1.22;;
26516;SDS011;14190;51.342;6.338;2023-06-24T12:07:55;7.35;;;2.55;;
26516;SDS011;14190;51.342;6.338;2023-06-24T12:10:23;1.17;;;0.90;;
26516;SDS011;14190;51.342;6.338;2023-06-24T12:12:50;1.35;;;0.90;;
26516;SDS011;14190;51.342;6.338;2023-06-24T12:15:18;2.20;;;1.35;;
26516;SDS011;14190;51.342;6.338;2023-06-24T12:17:45;1.92;;;0.98;;
26516;SDS011;14190;51.342;6.338;2023-06-24T12:20:13;1.47;;;0.90;;
26516;SDS011;14190;51.342;6.338;2023-06-24T12:22:41;0.98;;;0.90;;
26516;SDS011;14190;51.342;6.338;2023-06-24T12:25:09;1.37;;;1.25;;
26516;SDS011;14190;51.342;6.338;2023-06-24T12:27:37;1.25;;;0.88;;
26516;SDS011;14190;51.342;6.338;2023-06-24T12:30:05;1.17;;;0.80;;
26516;SDS011;14190;51.342;6.338;2023-06-24T12:32:32;1.20;;;0.80;;
26516;SDS011;14190;51.342;6.338;2023-06-24T12:34:59;1.40;;;1.12;;
26516;SDS011;14190;51.342;6.338;2023-06-24T12:37:29;2.25;;;1.02;;
26516;SDS011;14190;51.342;6.338;2023-06-24T12:39:58;1.02;;;0.93;;
26516;SDS011;14190;51.342;6.338;2023-06-24T12:42:26;1.30;;;1.02;;
26516;SDS011;14190;51.342;6.338;2023-06-24T12:44:53;1.15;;;0.85;;
26516;SDS011;14190;51.342;6.338;2023-06-24T12:47:21;1.22;;;0.93;;
26516;SDS011;14190;51.342;6.338;2023-06-24T12:49:49;1.00;;;0.82;;
26516;SDS011;14190;51.342;6.338;2023-06-24T12:52:16;1.12;;;0.80;;
26516;SDS011;14190;51.342;6.338;2023-06-24T12:54:44;1.32;;;1.02;;
26516;SDS011;14190;51.342;6.338;2023-06-24T12:57:11;1.25;;;1.15;;
26516;SDS011;14190;51.342;6.338;2023-06-24T12:59:38;1.42;;;0.80;;
26516;SDS011;14190;51.342;6.338;2023-06-24T13:02:06;1.42;;;0.98;;
26516;SDS011;14190;51.342;6.338;2023-06-24T13:04:33;0.72;;;0.72;;
26516;SDS011;14190;51.342;6.338;2023-06-24T13:07:00;1.12;;;0.85;;
26516;SDS011;14190;51.342;6.338;2023-06-24T13:09:28;0.80;;;0.80;;
26516;SDS011;14190;51.342;6.338;2023-06-24T13:11:55;2.87;;;0.90;;
26516;SDS011;14190;51.342;6.338;2023-06-24T13:14:23;0.85;;;0.78;;
26516;SDS011;14190;51.342;6.338;2023-06-24T13:16:52;0.85;;;0.60;;
26516;SDS011;14190;51.342;6.338;2023-06-24T13:19:19;2.05;;;1.05;;
26516;SDS011;14190;51.342;6.338;2023-06-24T13:21:46;2.08;;;0.82;;
26516;SDS011;14190;51.342;6.338;2023-06-24T13:24:14;1.67;;;1.02;;
26516;SDS011;14190;51.342;6.338;2023-06-24T13:26:41;0.98;;;0.72;;
26516;SDS011;14190;51.342;6.338;2023-06-24T13:29:09;1.05;;;0.80;;
26516;SDS011;14190;51.342;6.338;2023-06-24T13:31:36;1.12;;;0.93;;
26516;SDS011;14190;51.342;6.338;2023-06-24T13:34:03;1.92;;;1.17;;
26516;SDS011;14190;51.342;6.338;2023-06-24T13:36:34;0.93;;;0.72;;
26516;SDS011;14190;51.342;6.338;2023-06-24T13:39:03;0.90;;;0.62;;
26516;SDS011;14190;51.342;6.338;2023-06-24T13:41:31;1.75;;;0.70;;
26516;SDS011;14190;51.342;6.338;2023-06-24T13:43:59;1.12;;;1.02;;
26516;SDS011;14190;51.342;6.338;2023-06-24T13:46:27;1.02;;;0.80;;
26516;SDS011;14190;51.342;6.338;2023-06-24T13:48:55;1.00;;;0.57;;
26516;SDS011;14190;51.342;6.338;2023-06-24T13:51:23;3.10;;;1.00;;
26516;SDS011;14190;51.342;6.338;2023-06-24T13:53:52;1.02;;;0.80;;
26516;SDS011;14190;51.342;6.338;2023-06-24T13:56:21;1.47;;;0.95;;
26516;SDS011;14190;51.342;6.338;2023-06-24T13:58:50;1.32;;;0.82;;
26516;SDS011;14190;51.342;6.338;2023-06-24T14:01:18;1.57;;;0.90;;
26516;SDS011;14190;51.342;6.338;2023-06-24T14:03:45;3.85;;;0.93;;
26516;SDS011;14190;51.342;6.338;2023-06-24T14:06:13;1.72;;;1.12;;
26516;SDS011;14190;51.342;6.338;2023-06-24T14:08:42;1.55;;;0.93;;
26516;SDS011;14190;51.342;6.338;2023-06-24T14:11:09;1.37;;;1.02;;
26516;SDS011;14190;51.342;6.338;2023-06-24T14:13:37;0.85;;;0.75;;
26516;SDS011;14190;51.342;6.338;2023-06-24T14:16:04;1.72;;;1.27;;
26516;SDS011;14190;51.342;6.338;2023-06-24T14:18:32;1.37;;;1.00;;
26516;SDS011;14190;51.342;6.338;2023-06-24T14:21:01;1.75;;;1.12;;
26516;SDS011;14190;51.342;6.338;2023-06-24T14:23:29;0.88;;;0.88;;
26516;SDS011;14190;51.342;6.338;2023-06-24T14:25:56;1.22;;;1.00;;
26516;SDS011;14190;51.342;6.338;2023-06-24T14:28:24;1.15;;;0.85;;
26516;SDS011;14190;51.342;6.338;2023-06-24T14:30:51;1.20;;;0.80;;
26516;SDS011;14190;51.342;6.338;2023-06-24T14:33:19;1.40;;;1.15;;
26516;SDS011;14190;51.342;6.338;2023-06-24T14:35:46;0.68;;;0.65;;
26516;SDS011;14190;51.342;6.338;2023-06-24T14:38:13;1.15;;;0.60;;
26516;SDS011;14190;51.342;6.338;2023-06-24T14:40:41;1.25;;;0.70;;
26516;SDS011;14190;51.342;6.338;2023-06-24T14:43:08;1.17;;;1.07;;
26516;SDS011;14190;51.342;6.338;2023-06-24T14:45:36;1.75;;;1.20;;
26516;SDS011;14190;51.342;6.338;2023-06-24T14:48:03;1.45;;;0.72;;
26516;SDS011;14190;51.342;6.338;2023-06-24T14:50:31;1.32;;;0.90;;
26516;SDS011;14190;51.342;6.338;2023-06-24T14:52:58;2.15;;;1.57;;
26516;SDS011;14190;51.342;6.338;2023-06-24T14:55:25;1.42;;;1.00;;
26516;SDS011;14190;51.342;6.338;2023-06-24T14:57:53;1.77;;;1.12;;
26516;SDS011;14190;51.342;6.338;2023-06-24T15:00:20;2.17;;;1.52;;
26516;SDS011;14190;51.342;6.338;2023-06-24T15:02:47;2.30;;;1.30;;
26516;SDS011;14190;51.342;6.338;2023-06-24T15:05:15;1.22;;;0.95;;
26516;SDS011;14190;51.342;6.338;2023-06-24T15:07:42;2.12;;;1.35;;
26516;SDS011;14190;51.342;6.338;2023-06-24T15:10:09;2.17;;;1.30;;
26516;SDS011;14190;51.342;6.338;2023-06-24T15:12:37;1.87;;;1.27;;